sensor_id;sensor_type;location;lat;lon;timestamp;pressure;altitude;pressure_sealevel;temperature;humidity
62725;BME280;49026;52.600;4.694;2022-09-21T00:01:08;102716.00;;;10.06;69.83
62725;BME280;49026;52.600;4.694;2022-09-21T00:03:35;102708.09;;;10.08;69.79
62725;BME280;49026;52.600;4.694;2022-09-21T00:06:07;102704.56;;;10.12;69.89
62725;BME280;49026;52.600;4.694;2022-09-21T00:08:33;102708.91;;;10.17;69.81
62725;BME280;49026;52.600;4.694;2022-09-21T00:11:01;102702.72;;;10.22;69.87
62725;BME280;49026;52.600;4.694;2022-09-21T00:13:29;102702.69;;;10.28;69.97
62725;BME280;49026;52.600;4.694;2022-09-21T00:15:54;102714.03;;;10.31;70.07
62725;BME280;49026;52.600;4.694;2022-09-21T00:18:21;102704.41;;;10.32;69.93
62725;BME280;49026;52.600;4.694;2022-09-21T00:20:47;102710.53;;;10.34;69.83
62725;BME280;49026;52.600;4.694;2022-09-21T00:23:15;102695.66;;;10.34;70.15
62725;BME280;49026;52.600;4.694;2022-09-21T00:25:40;102704.38;;;10.38;69.87
62725;BME280;49026;52.600;4.694;2022-09-21T00:28:08;102707.84;;;10.38;69.96
62725;BME280;49026;52.600;4.694;2022-09-21T00:30:33;102700.81;;;10.42;70.05
62725;BME280;49026;52.600;4.694;2022-09-21T00:32:58;102701.69;;;10.43;69.78
62725;BME280;49026;52.600;4.694;2022-09-21T00:35:31;102701.69;;;10.44;70.16
62725;BME280;49026;52.600;4.694;2022-09-21T00:38:01;102697.31;;;10.43;69.90
62725;BME280;49026;52.600;4.694;2022-09-21T00:40:27;102702.56;;;10.45;69.83
62725;BME280;49026;52.600;4.694;2022-09-21T00:42:53;102701.69;;;10.43;69.67
62725;BME280;49026;52.600;4.694;2022-09-21T00:45:18;102703.44;;;10.41;69.67
62725;BME280;49026;52.600;4.694;2022-09-21T00:47:49;102703.50;;;10.39;69.71
62725;BME280;49026;52.600;4.694;2022-09-21T00:50:22;102710.53;;;10.34;69.79
62725;BME280;49026;52.600;4.694;2022-09-21T00:52:51;102713.19;;;10.29;69.57
62725;BME280;49026;52.600;4.694;2022-09-21T00:55:21;102718.47;;;10.23;69.49
62725;BME280;49026;52.600;4.694;2022-09-21T00:57:58;102722.06;;;10.16;69.53
62725;BME280;49026;52.600;4.694;2022-09-21T01:00:24;102720.34;;;10.09;69.55
62725;BME280;49026;52.600;4.694;2022-09-21T01:02:50;102723.03;;;10.02;69.44
62725;BME280;49026;52.600;4.694;2022-09-21T01:05:18;102716.97;;;9.94;69.31
62725;BME280;49026;52.600;4.694;2022-09-21T01:07:45;102716.16;;;9.86;69.39
62725;BME280;49026;52.600;4.694;2022-09-21T01:10:14;102719.72;;;9.77;69.28
62725;BME280;49026;52.600;4.694;2022-09-21T01:18:19;102716.41;;;9.48;69.30
62725;BME280;49026;52.600;4.694;2022-09-21T01:29:26;102708.72;;;9.09;69.36
62725;BME280;49026;52.600;4.694;2022-09-21T01:34:35;102713.13;;;8.92;69.35
62725;BME280;49026;52.600;4.694;2022-09-21T01:37:06;102711.41;;;8.84;69.11
62725;BME280;49026;52.600;4.694;2022-09-21T01:39:36;102714.94;;;8.77;68.96
62725;BME280;49026;52.600;4.694;2022-09-21T01:42:06;102707.06;;;8.71;69.05
62725;BME280;49026;52.600;4.694;2022-09-21T01:44:34;102710.59;;;8.64;69.27
62725;BME280;49026;52.600;4.694;2022-09-21T01:47:06;102707.13;;;8.56;69.32
62725;BME280;49026;52.600;4.694;2022-09-21T01:49:35;102707.97;;;8.50;69.76
62725;BME280;49026;52.600;4.694;2022-09-21T01:52:28;102713.25;;;8.44;69.70
62725;BME280;49026;52.600;4.694;2022-09-21T01:55:00;102713.22;;;8.38;69.44
62725;BME280;49026;52.600;4.694;2022-09-21T01:57:35;102709.72;;;8.32;69.24
62725;BME280;49026;52.600;4.694;2022-09-21T02:00:04;102708.88;;;8.26;69.34
62725;BME280;49026;52.600;4.694;2022-09-21T02:02:36;102708.84;;;8.21;69.46
62725;BME280;49026;52.600;4.694;2022-09-21T02:05:04;102709.75;;;8.15;69.62
62725;BME280;49026;52.600;4.694;2022-09-21T02:07:31;102710.59;;;8.11;69.16
62725;BME280;49026;52.600;4.694;2022-09-21T02:09:58;102714.09;;;8.07;69.69
62725;BME280;49026;52.600;4.694;2022-09-21T02:12:25;102708.84;;;8.01;68.96
62725;BME280;49026;52.600;4.694;2022-09-21T02:14:52;102708.84;;;7.98;69.00
62725;BME280;49026;52.600;4.694;2022-09-21T02:20:31;102707.97;;;7.88;69.56
62725;BME280;49026;52.600;4.694;2022-09-21T02:26:02;102721.06;;;7.81;69.38
62725;BME280;49026;52.600;4.694;2022-09-21T02:28:42;102714.06;;;7.76;69.02
62725;BME280;49026;52.600;4.694;2022-09-21T02:31:16;102711.47;;;7.72;69.08
62725;BME280;49026;52.600;4.694;2022-09-21T02:33:59;102714.91;;;7.66;68.93
62725;BME280;49026;52.600;4.694;2022-09-21T02:36:32;102721.00;;;7.59;69.13
62725;BME280;49026;52.600;4.694;2022-09-21T02:39:06;102715.78;;;7.56;69.17
62725;BME280;49026;52.600;4.694;2022-09-21T02:41:42;102703.56;;;7.50;69.34
62725;BME280;49026;52.600;4.694;2022-09-21T02:44:15;102703.53;;;7.46;69.54
62725;BME280;49026;52.600;4.694;2022-09-21T02:46:50;102708.75;;;7.42;69.57
62725;BME280;49026;52.600;4.694;2022-09-21T02:49:26;102703.50;;;7.39;69.15
62725;BME280;49026;52.600;4.694;2022-09-21T02:51:57;102700.00;;;7.34;69.29
62725;BME280;49026;52.600;4.694;2022-09-21T02:54:27;102700.91;;;7.32;69.71
62725;BME280;49026;52.600;4.694;2022-09-21T02:56:54;102705.22;;;7.30;69.01
62725;BME280;49026;52.600;4.694;2022-09-21T02:59:21;102706.09;;;7.29;69.14
62725;BME280;49026;52.600;4.694;2022-09-21T03:01:50;102706.97;;;7.28;68.79
62725;BME280;49026;52.600;4.694;2022-09-21T03:04:16;102710.44;;;7.27;69.59
62725;BME280;49026;52.600;4.694;2022-09-21T03:06:42;102702.59;;;7.27;69.38
62725;BME280;49026;52.600;4.694;2022-09-21T03:09:07;102700.00;;;7.25;70.00
62725;BME280;49026;52.600;4.694;2022-09-21T03:11:33;102704.31;;;7.23;69.76
62725;BME280;49026;52.600;4.694;2022-09-21T03:14:03;102705.22;;;7.22;70.07
62725;BME280;49026;52.600;4.694;2022-09-21T03:16:40;102710.44;;;7.20;69.77
62725;BME280;49026;52.600;4.694;2022-09-21T03:19:05;102707.81;;;7.17;69.74
62725;BME280;49026;52.600;4.694;2022-09-21T03:21:30;102709.56;;;7.17;70.16
62725;BME280;49026;52.600;4.694;2022-09-21T03:24:01;102706.91;;;7.14;70.55
62725;BME280;49026;52.600;4.694;2022-09-21T03:26:27;102716.50;;;7.12;69.88
62725;BME280;49026;52.600;4.694;2022-09-21T03:28:54;102713.88;;;7.09;70.06
62725;BME280;49026;52.600;4.694;2022-09-21T03:31:20;102706.88;;;7.04;70.06
62725;BME280;49026;52.600;4.694;2022-09-21T03:33:46;102710.38;;;7.03;70.41
62725;BME280;49026;52.600;4.694;2022-09-21T03:36:12;102712.97;;;7.02;70.36
62725;BME280;49026;52.600;4.694;2022-09-21T03:38:40;102714.69;;;7.03;70.86
62725;BME280;49026;52.600;4.694;2022-09-21T03:41:05;102707.75;;;7.02;70.58
62725;BME280;49026;52.600;4.694;2022-09-21T03:43:31;102718.19;;;7.00;69.85
62725;BME280;49026;52.600;4.694;2022-09-21T03:45:59;102721.66;;;6.98;70.25
62725;BME280;49026;52.600;4.694;2022-09-21T03:48:24;102722.50;;;6.94;70.57
62725;BME280;49026;52.600;4.694;2022-09-21T03:50:50;102725.09;;;6.88;70.26
62725;BME280;49026;52.600;4.694;2022-09-21T03:53:15;102721.56;;;6.81;70.40
62725;BME280;49026;52.600;4.694;2022-09-21T03:55:43;102725.91;;;6.77;70.58
62725;BME280;49026;52.600;4.694;2022-09-21T03:58:11;102726.75;;;6.75;70.59
62725;BME280;49026;52.600;4.694;2022-09-21T04:00:36;102724.13;;;6.72;70.30
62725;BME280;49026;52.600;4.694;2022-09-21T04:03:03;102725.00;;;6.71;70.34
62725;BME280;49026;52.600;4.694;2022-09-21T04:05:29;102723.22;;;6.68;69.41
62725;BME280;49026;52.600;4.694;2022-09-21T04:07:56;102726.69;;;6.65;69.82
62725;BME280;49026;52.600;4.694;2022-09-21T04:10:23;102719.69;;;6.63;70.25
62725;BME280;49026;52.600;4.694;2022-09-21T04:12:57;102722.31;;;6.61;69.99
62725;BME280;49026;52.600;4.694;2022-09-21T04:15:25;102711.84;;;6.61;70.50
62725;BME280;49026;52.600;4.694;2022-09-21T04:17:51;102719.69;;;6.61;70.29
62725;BME280;49026;52.600;4.694;2022-09-21T04:20:18;102714.47;;;6.63;70.56
62725;BME280;49026;52.600;4.694;2022-09-21T04:22:43;102711.88;;;6.64;70.05
62725;BME280;49026;52.600;4.694;2022-09-21T04:25:11;102708.38;;;6.61;70.26
62725;BME280;49026;52.600;4.694;2022-09-21T04:27:37;102710.97;;;6.58;70.82
62725;BME280;49026;52.600;4.694;2022-09-21T04:30:02;102712.69;;;6.56;70.23
62725;BME280;49026;52.600;4.694;2022-09-21T04:32:28;102714.44;;;6.54;70.20
62725;BME280;49026;52.600;4.694;2022-09-21T04:34:54;102719.63;;;6.49;70.59
62725;BME280;49026;52.600;4.694;2022-09-21T04:37:19;102725.69;;;6.45;70.55
62725;BME280;49026;52.600;4.694;2022-09-21T04:39:45;102718.69;;;6.41;70.34
62725;BME280;49026;52.600;4.694;2022-09-21T04:42:14;102717.84;;;6.42;70.19
62725;BME280;49026;52.600;4.694;2022-09-21T04:44:39;102724.75;;;6.40;69.92
62725;BME280;49026;52.600;4.694;2022-09-21T04:47:04;102715.19;;;6.36;70.70
62725;BME280;49026;52.600;4.694;2022-09-21T04:49:30;102719.50;;;6.32;70.34
62725;BME280;49026;52.600;4.694;2022-09-21T04:51:55;102716.00;;;6.27;70.20
62725;BME280;49026;52.600;4.694;2022-09-21T04:54:20;102715.09;;;6.23;70.43
62725;BME280;49026;52.600;4.694;2022-09-21T04:56:48;102715.06;;;6.20;70.25
62725;BME280;49026;52.600;4.694;2022-09-21T04:59:13;102720.25;;;6.17;70.81
62725;BME280;49026;52.600;4.694;2022-09-21T05:01:39;102710.66;;;6.16;71.03
62725;BME280;49026;52.600;4.694;2022-09-21T05:04:04;102713.28;;;6.16;70.30
62725;BME280;49026;52.600;4.694;2022-09-21T05:06:32;102717.66;;;6.17;70.41
62725;BME280;49026;52.600;4.694;2022-09-21T05:08:58;102718.50;;;6.16;70.12
62725;BME280;49026;52.600;4.694;2022-09-21T05:11:42;102716.72;;;6.12;70.38
62725;BME280;49026;52.600;4.694;2022-09-21T05:14:08;102720.19;;;6.11;70.76
62725;BME280;49026;52.600;4.694;2022-09-21T05:16:37;102727.16;;;6.10;70.54
62725;BME280;49026;52.600;4.694;2022-09-21T05:19:04;102729.72;;;6.07;70.30
62725;BME280;49026;52.600;4.694;2022-09-21T05:21:30;102729.72;;;6.06;70.70
62725;BME280;49026;52.600;4.694;2022-09-21T05:23:58;102729.72;;;6.06;70.52
62725;BME280;49026;52.600;4.694;2022-09-21T05:26:27;102729.72;;;6.06;70.15
62725;BME280;49026;52.600;4.694;2022-09-21T05:28:53;102733.22;;;6.05;69.99
62725;BME280;49026;52.600;4.694;2022-09-21T05:31:42;102728.84;;;6.04;70.79
62725;BME280;49026;52.600;4.694;2022-09-21T05:37:12;102732.34;;;6.06;70.58
62725;BME280;49026;52.600;4.694;2022-09-21T05:39:44;102734.97;;;6.09;70.53
62725;BME280;49026;52.600;4.694;2022-09-21T05:42:10;102737.63;;;6.14;70.47
62725;BME280;49026;52.600;4.694;2022-09-21T05:44:35;102735.88;;;6.14;70.62
62725;BME280;49026;52.600;4.694;2022-09-21T05:47:10;102735.06;;;6.17;70.35
62725;BME280;49026;52.600;4.694;2022-09-21T05:55:29;102734.19;;;6.21;70.42
62725;BME280;49026;52.600;4.694;2022-09-21T06:03:41;102728.16;;;6.28;70.28
62725;BME280;49026;52.600;4.694;2022-09-21T06:06:07;102730.84;;;6.36;70.28
62725;BME280;49026;52.600;4.694;2022-09-21T06:08:33;102729.13;;;6.39;70.70
62725;BME280;49026;52.600;4.694;2022-09-21T06:10:58;102735.25;;;6.46;71.11
62725;BME280;49026;52.600;4.694;2022-09-21T06:13:24;102730.09;;;6.51;70.73
62725;BME280;49026;52.600;4.694;2022-09-21T06:15:50;102737.97;;;6.61;71.65
62725;BME280;49026;52.600;4.694;2022-09-21T06:18:16;102726.75;;;6.75;71.43
62725;BME280;49026;52.600;4.694;2022-09-21T06:20:44;102730.34;;;6.94;72.23
62725;BME280;49026;52.600;4.694;2022-09-21T06:23:13;102728.69;;;7.13;72.50
62725;BME280;49026;52.600;4.694;2022-09-21T06:25:38;102733.16;;;7.35;72.86
62725;BME280;49026;52.600;4.694;2022-09-21T06:28:05;102733.22;;;7.61;73.55
62725;BME280;49026;52.600;4.694;2022-09-21T06:30:32;102735.03;;;7.89;74.06
62725;BME280;49026;52.600;4.694;2022-09-21T06:32:59;102729.78;;;8.15;74.54
62725;BME280;49026;52.600;4.694;2022-09-21T06:35:26;102732.41;;;8.38;75.14
62725;BME280;49026;52.600;4.694;2022-09-21T06:37:56;102733.28;;;8.60;75.83
62725;BME280;49026;52.600;4.694;2022-09-21T06:40:21;102740.25;;;8.83;75.95
62725;BME280;49026;52.600;4.694;2022-09-21T06:42:49;102741.06;;;9.05;76.65
62725;BME280;49026;52.600;4.694;2022-09-21T06:45:19;102739.25;;;9.22;76.69
62725;BME280;49026;52.600;4.694;2022-09-21T06:47:47;102747.91;;;9.41;77.48
62725;BME280;49026;52.600;4.694;2022-09-21T06:50:12;102741.69;;;9.61;77.97
62725;BME280;49026;52.600;4.694;2022-09-21T06:52:40;102744.19;;;9.81;78.71
62725;BME280;49026;52.600;4.694;2022-09-21T06:55:07;102742.28;;;10.03;79.26
62725;BME280;49026;52.600;4.694;2022-09-21T06:57:34;102745.56;;;10.30;79.82
62725;BME280;49026;52.600;4.694;2022-09-21T06:59:59;102744.47;;;10.57;80.17
62725;BME280;49026;52.600;4.694;2022-09-21T07:02:27;102742.44;;;10.85;80.53
62725;BME280;49026;52.600;4.694;2022-09-21T07:04:52;102739.56;;;11.08;80.94
62725;BME280;49026;52.600;4.694;2022-09-21T07:07:17;102745.38;;;11.34;80.94
62725;BME280;49026;52.600;4.694;2022-09-21T07:09:45;102745.94;;;11.57;81.50
62725;BME280;49026;52.600;4.694;2022-09-21T07:12:12;102745.56;;;11.83;82.06
62725;BME280;49026;52.600;4.694;2022-09-21T07:14:39;102745.22;;;12.10;82.25
62725;BME280;49026;52.600;4.694;2022-09-21T07:17:04;102747.38;;;12.36;82.25
62725;BME280;49026;52.600;4.694;2022-09-21T07:19:30;102746.97;;;12.60;82.17
62725;BME280;49026;52.600;4.694;2022-09-21T07:21:55;102739.44;;;12.87;82.22
62725;BME280;49026;52.600;4.694;2022-09-21T07:24:21;102734.53;;;13.12;82.53
62725;BME280;49026;52.600;4.694;2022-09-21T07:26:46;102754.22;;;13.40;82.26
62725;BME280;49026;52.600;4.694;2022-09-21T07:29:11;102747.50;;;13.65;81.86
62725;BME280;49026;52.600;4.694;2022-09-21T07:31:37;102752.31;;;13.87;81.67
62725;BME280;49026;52.600;4.694;2022-09-21T07:34:05;102748.97;;;14.15;81.43
62725;BME280;49026;52.600;4.694;2022-09-21T07:36:30;102749.19;;;14.41;81.13
62725;BME280;49026;52.600;4.694;2022-09-21T07:38:56;102745.03;;;14.67;80.79
62725;BME280;49026;52.600;4.694;2022-09-21T07:41:21;102749.69;;;14.90;81.03
62725;BME280;49026;52.600;4.694;2022-09-21T07:43:47;102739.28;;;15.15;80.70
62725;BME280;49026;52.600;4.694;2022-09-21T07:46:13;102749.13;;;15.40;80.47
62725;BME280;49026;52.600;4.694;2022-09-21T07:48:39;102750.13;;;15.66;80.36
62725;BME280;49026;52.600;4.694;2022-09-21T07:51:07;102752.13;;;15.87;80.31
62725;BME280;49026;52.600;4.694;2022-09-21T07:53:36;102754.94;;;16.09;80.41
62725;BME280;49026;52.600;4.694;2022-09-21T07:56:07;102754.78;;;16.41;80.25
62725;BME280;49026;52.600;4.694;2022-09-21T07:58:34;102752.19;;;16.64;79.92
62725;BME280;49026;52.600;4.694;2022-09-21T08:01:19;102754.97;;;16.87;80.22
62725;BME280;49026;52.600;4.694;2022-09-21T08:03:47;102750.09;;;16.99;79.33
62725;BME280;49026;52.600;4.694;2022-09-21T08:06:12;102745.00;;;17.17;79.45
62725;BME280;49026;52.600;4.694;2022-09-21T08:08:38;102748.47;;;17.43;79.23
62725;BME280;49026;52.600;4.694;2022-09-21T08:11:07;102750.13;;;17.67;78.96
62725;BME280;49026;52.600;4.694;2022-09-21T08:13:33;102744.94;;;17.88;78.48
62725;BME280;49026;52.600;4.694;2022-09-21T08:16:00;102752.97;;;18.08;78.24
62725;BME280;49026;52.600;4.694;2022-09-21T08:18:26;102753.50;;;18.17;78.12
62725;BME280;49026;52.600;4.694;2022-09-21T08:20:53;102754.59;;;18.33;77.77
62725;BME280;49026;52.600;4.694;2022-09-21T08:23:19;102752.00;;;18.52;77.75
62725;BME280;49026;52.600;4.694;2022-09-21T08:25:44;102759.25;;;18.69;76.97
62725;BME280;49026;52.600;4.694;2022-09-21T08:28:10;102755.66;;;18.91;76.21
62725;BME280;49026;52.600;4.694;2022-09-21T08:30:40;102759.41;;;19.05;74.93
62725;BME280;49026;52.600;4.694;2022-09-21T08:33:08;102755.63;;;19.11;71.97
62725;BME280;49026;52.600;4.694;2022-09-21T08:35:34;102755.34;;;19.17;70.09
62725;BME280;49026;52.600;4.694;2022-09-21T08:38:01;102752.13;;;19.30;72.97
62725;BME280;49026;52.600;4.694;2022-09-21T08:40:26;102753.41;;;19.40;73.09
62725;BME280;49026;52.600;4.694;2022-09-21T08:43:09;102763.13;;;19.60;73.15
62725;BME280;49026;52.600;4.694;2022-09-21T08:45:40;102760.22;;;19.84;72.32
62725;BME280;49026;52.600;4.694;2022-09-21T08:48:23;102769.13;;;20.02;71.83
62725;BME280;49026;52.600;4.694;2022-09-21T08:50:52;102766.63;;;20.16;70.66
62725;BME280;49026;52.600;4.694;2022-09-21T08:55:45;102759.09;;;20.24;67.80
62725;BME280;49026;52.600;4.694;2022-09-21T09:01:03;102765.16;;;20.45;66.27
62725;BME280;49026;52.600;4.694;2022-09-21T09:08:57;102772.94;;;20.67;64.73
62725;BME280;49026;52.600;4.694;2022-09-21T09:14:52;102772.63;;;21.07;66.74
62725;BME280;49026;52.600;4.694;2022-09-21T09:20:12;102771.28;;;21.32;67.25
62725;BME280;49026;52.600;4.694;2022-09-21T09:22:44;102772.09;;;21.50;67.22
62725;BME280;49026;52.600;4.694;2022-09-21T09:25:16;102774.97;;;21.62;65.48
62725;BME280;49026;52.600;4.694;2022-09-21T09:27:45;102771.75;;;21.72;64.28
62725;BME280;49026;52.600;4.694;2022-09-21T09:33:12;102774.00;;;21.79;64.92
62725;BME280;49026;52.600;4.694;2022-09-21T09:35:50;102772.50;;;21.90;64.44
62725;BME280;49026;52.600;4.694;2022-09-21T09:38:27;102771.50;;;21.76;61.74
62725;BME280;49026;52.600;4.694;2022-09-21T09:41:00;102775.44;;;22.01;65.12
62725;BME280;49026;52.600;4.694;2022-09-21T09:46:37;102769.25;;;22.15;62.55
62725;BME280;49026;52.600;4.694;2022-09-21T09:51:52;102767.81;;;22.09;59.75
62725;BME280;49026;52.600;4.694;2022-09-21T09:54:18;102771.31;;;22.26;61.28
62725;BME280;49026;52.600;4.694;2022-09-21T09:56:49;102773.69;;;22.46;62.09
62725;BME280;49026;52.600;4.694;2022-09-21T09:59:43;102764.78;;;22.90;57.24
62725;BME280;49026;52.600;4.694;2022-09-21T10:02:23;102763.66;;;23.09;58.56
62725;BME280;49026;52.600;4.694;2022-09-21T10:04:59;102769.53;;;23.00;56.34
62725;BME280;49026;52.600;4.694;2022-09-21T10:07:39;102761.50;;;22.85;58.14
62725;BME280;49026;52.600;4.694;2022-09-21T10:18:36;102760.53;;;22.27;56.32
62725;BME280;49026;52.600;4.694;2022-09-21T10:21:07;102760.44;;;21.82;57.86
62725;BME280;49026;52.600;4.694;2022-09-21T10:23:34;102761.63;;;21.93;58.66
62725;BME280;49026;52.600;4.694;2022-09-21T10:26:09;102759.53;;;22.14;57.93
62725;BME280;49026;52.600;4.694;2022-09-21T10:28:36;102768.38;;;22.61;57.58
62725;BME280;49026;52.600;4.694;2022-09-21T10:31:15;102759.22;;;23.08;53.96
62725;BME280;49026;52.600;4.694;2022-09-21T10:33:51;102760.94;;;23.23;53.69
62725;BME280;49026;52.600;4.694;2022-09-21T10:36:31;102757.88;;;23.71;55.09
62725;BME280;49026;52.600;4.694;2022-09-21T10:41:41;102751.13;;;24.71;54.73
62725;BME280;49026;52.600;4.694;2022-09-21T10:44:15;102746.50;;;24.86;54.14
62725;BME280;49026;52.600;4.694;2022-09-21T10:46:43;102748.72;;;25.05;53.82
62725;BME280;49026;52.600;4.694;2022-09-21T10:49:16;102757.69;;;24.93;49.38
62725;BME280;49026;52.600;4.694;2022-09-21T10:51:44;102749.94;;;24.88;51.87
62725;BME280;49026;52.600;4.694;2022-09-21T10:54:16;102751.06;;;25.23;52.26
62725;BME280;49026;52.600;4.694;2022-09-21T10:56:56;102753.50;;;25.51;52.23
62725;BME280;49026;52.600;4.694;2022-09-21T10:59:33;102750.84;;;25.87;51.30
62725;BME280;49026;52.600;4.694;2022-09-21T11:02:00;102756.75;;;26.16;54.37
62725;BME280;49026;52.600;4.694;2022-09-21T11:07:01;102745.81;;;25.58;51.63
62725;BME280;49026;52.600;4.694;2022-09-21T11:09:35;102745.50;;;25.13;52.96
62725;BME280;49026;52.600;4.694;2022-09-21T11:14:53;102736.84;;;23.78;53.10
62725;BME280;49026;52.600;4.694;2022-09-21T11:17:45;102737.38;;;23.28;53.88
62725;BME280;49026;52.600;4.694;2022-09-21T11:23:07;102733.47;;;22.32;53.53
62725;BME280;49026;52.600;4.694;2022-09-21T11:26:01;102736.13;;;22.01;53.77
62725;BME280;49026;52.600;4.694;2022-09-21T11:37:17;102737.59;;;20.45;54.19
62725;BME280;49026;52.600;4.694;2022-09-21T11:39:57;102740.88;;;19.97;54.64
62725;BME280;49026;52.600;4.694;2022-09-21T11:42:55;102728.06;;;19.31;54.81
62725;BME280;49026;52.600;4.694;2022-09-21T12:08:13;102731.06;;;17.80;56.67
62725;BME280;49026;52.600;4.694;2022-09-21T12:11:13;102729.06;;;17.85;56.53
62725;BME280;49026;52.600;4.694;2022-09-21T12:23:14;102720.94;;;17.89;56.77
62725;BME280;49026;52.600;4.694;2022-09-21T12:25:46;102722.22;;;18.01;56.72
62725;BME280;49026;52.600;4.694;2022-09-21T12:38:36;102714.91;;;18.06;56.89
62725;BME280;49026;52.600;4.694;2022-09-21T12:52:31;102708.59;;;18.09;56.67
62725;BME280;49026;52.600;4.694;2022-09-21T12:58:27;102708.59;;;18.09;56.41
62725;BME280;49026;52.600;4.694;2022-09-21T13:01:20;102709.78;;;18.02;56.25
62725;BME280;49026;52.600;4.694;2022-09-21T13:09:50;102696.59;;;17.76;55.88
62725;BME280;49026;52.600;4.694;2022-09-21T13:12:28;102693.94;;;18.60;56.43
62725;BME280;49026;52.600;4.694;2022-09-21T13:15:04;102702.31;;;19.86;55.22
62725;BME280;49026;52.600;4.694;2022-09-21T13:20:56;102693.22;;;21.73;53.73
62725;BME280;49026;52.600;4.694;2022-09-21T13:26:54;102689.78;;;21.39;53.46
62725;BME280;49026;52.600;4.694;2022-09-21T13:29:51;102687.78;;;21.42;53.91
62725;BME280;49026;52.600;4.694;2022-09-21T13:33:03;102681.59;;;22.49;53.82
62725;BME280;49026;52.600;4.694;2022-09-21T13:36:34;102679.72;;;23.48;52.80
62725;BME280;49026;52.600;4.694;2022-09-21T13:39:18;102679.25;;;23.96;51.43
62725;BME280;49026;52.600;4.694;2022-09-21T13:41:47;102683.19;;;24.31;51.75
62725;BME280;49026;52.600;4.694;2022-09-21T13:44:36;102671.34;;;24.72;51.32
62725;BME280;49026;52.600;4.694;2022-09-21T13:47:01;102672.66;;;24.66;54.23
62725;BME280;49026;52.600;4.694;2022-09-21T13:49:32;102672.09;;;24.48;52.28
62725;BME280;49026;52.600;4.694;2022-09-21T13:57:22;102672.28;;;22.83;51.93
62725;BME280;49026;52.600;4.694;2022-09-21T14:02:33;102664.59;;;23.06;52.33
62725;BME280;49026;52.600;4.694;2022-09-21T14:07:44;102666.84;;;23.41;50.75
62725;BME280;49026;52.600;4.694;2022-09-21T14:10:18;102662.31;;;23.68;50.24
62725;BME280;49026;52.600;4.694;2022-09-21T14:12:43;102661.41;;;23.55;49.57
62725;BME280;49026;52.600;4.694;2022-09-21T14:17:42;102648.53;;;23.60;49.53
62725;BME280;49026;52.600;4.694;2022-09-21T14:20:29;102648.28;;;23.78;49.28
62725;BME280;49026;52.600;4.694;2022-09-21T14:26:03;102651.06;;;24.55;48.08
62725;BME280;49026;52.600;4.694;2022-09-21T14:28:45;102646.53;;;24.04;48.10
62725;BME280;49026;52.600;4.694;2022-09-21T14:31:18;102640.13;;;23.39;48.48
62725;BME280;49026;52.600;4.694;2022-09-21T14:33:52;102640.69;;;22.88;47.96
62725;BME280;49026;52.600;4.694;2022-09-21T14:36:25;102643.16;;;22.19;49.14
62725;BME280;49026;52.600;4.694;2022-09-21T14:38:57;102645.63;;;21.63;50.08
62725;BME280;49026;52.600;4.694;2022-09-21T14:41:28;102640.25;;;21.32;48.98
62725;BME280;49026;52.600;4.694;2022-09-21T14:43:56;102634.41;;;20.93;50.01
62725;BME280;49026;52.600;4.694;2022-09-21T14:46:50;102630.28;;;20.54;49.57
62725;BME280;49026;52.600;4.694;2022-09-21T14:52:46;102635.28;;;19.57;50.61
62725;BME280;49026;52.600;4.694;2022-09-21T14:55:32;102633.38;;;19.41;49.95
62725;BME280;49026;52.600;4.694;2022-09-21T14:59:09;102638.44;;;19.29;50.59
62725;BME280;49026;52.600;4.694;2022-09-21T15:06:36;102626.59;;;18.77;50.70
62725;BME280;49026;52.600;4.694;2022-09-21T15:15:58;102624.13;;;18.35;49.41
62725;BME280;49026;52.600;4.694;2022-09-21T15:18:26;102626.59;;;18.19;50.90
62725;BME280;49026;52.600;4.694;2022-09-21T15:21:00;102618.88;;;18.12;50.72
62725;BME280;49026;52.600;4.694;2022-09-21T15:23:38;102622.59;;;18.08;50.75
62725;BME280;49026;52.600;4.694;2022-09-21T15:26:08;102616.81;;;17.99;50.61
62725;BME280;49026;52.600;4.694;2022-09-21T15:28:37;102620.88;;;17.87;50.84
62725;BME280;49026;52.600;4.694;2022-09-21T15:31:05;102626.84;;;17.92;51.58
62725;BME280;49026;52.600;4.694;2022-09-21T15:33:43;102622.19;;;17.97;50.97
62725;BME280;49026;52.600;4.694;2022-09-21T15:36:12;102621.41;;;17.95;51.38
62725;BME280;49026;52.600;4.694;2022-09-21T15:38:38;102616.94;;;17.95;51.37
62725;BME280;49026;52.600;4.694;2022-09-21T15:41:04;102611.09;;;17.87;51.57
62725;BME280;49026;52.600;4.694;2022-09-21T15:43:32;102624.50;;;17.84;51.42
62725;BME280;49026;52.600;4.694;2022-09-21T15:46:03;102618.38;;;17.82;51.75
62725;BME280;49026;52.600;4.694;2022-09-21T15:48:34;102613.41;;;17.74;51.56
62725;BME280;49026;52.600;4.694;2022-09-21T15:51:27;102616.47;;;17.64;51.91
62725;BME280;49026;52.600;4.694;2022-09-21T15:54:01;102617.38;;;17.64;51.82
62725;BME280;49026;52.600;4.694;2022-09-21T15:56:30;102614.00;;;17.59;52.00
62725;BME280;49026;52.600;4.694;2022-09-21T15:59:02;102615.13;;;17.53;51.79
62725;BME280;49026;52.600;4.694;2022-09-21T16:01:38;102617.75;;;17.55;52.38
62725;BME280;49026;52.600;4.694;2022-09-21T16:04:07;102602.59;;;17.57;52.31
62725;BME280;49026;52.600;4.694;2022-09-21T16:06:43;102606.44;;;17.50;52.31
62725;BME280;49026;52.600;4.694;2022-09-21T16:12:28;102608.72;;;17.37;52.36
62725;BME280;49026;52.600;4.694;2022-09-21T16:15:30;102607.00;;;17.36;52.51
62725;BME280;49026;52.600;4.694;2022-09-21T16:18:01;102604.75;;;17.47;52.30
62725;BME280;49026;52.600;4.694;2022-09-21T16:20:38;102599.59;;;18.07;51.47
62725;BME280;49026;52.600;4.694;2022-09-21T16:23:10;102593.66;;;18.80;50.17
62725;BME280;49026;52.600;4.694;2022-09-21T16:25:36;102597.34;;;19.33;49.13
62725;BME280;49026;52.600;4.694;2022-09-21T16:28:06;102592.69;;;19.55;48.78
62725;BME280;49026;52.600;4.694;2022-09-21T16:30:51;102591.03;;;19.35;48.23